Time;durP1;ratioP1;P1;durP2;ratioP2;P2;SDS_P1;SDS_P2;PMS_P1;PMS_P2;Temp;Humidity;BMP_temperature;BMP_pressure;BME280_temperature;BME280_humidity;BME280_pressure;Samples;Min_cycle;Max_cycle;Signal;HPM_P1;HPM_P2
2022/05/23 00:03:16;;;;;;;;;;;;;;;23.93;40.82;95010.06;10342906;28;2205;-61
2022/05/23 00:08:16;;;;;;;;;;;;;;;23.94;40.59;95008.97;10345454;28;2205;-61
2022/05/23 00:13:16;;;;;;;;;;;;;;;23.94;40.78;94999.16;10335188;28;2263;-61
2022/05/23 00:18:17;;;;;;;;;;;;;;;23.94;40.96;95001.81;10340879;28;2169;-65
2022/05/23 00:23:18;;;;;;;;;;;;;;;23.95;40.93;94987.47;10339297;28;2133;-63
2022/05/23 00:28:18;;;;;;;;;;;;;;;23.96;40.85;94996.19;10339682;28;2312;-64
2022/05/23 00:38:37;;;;;;;;;;;;;;;23.96;40.79;94998.84;10337395;28;2244;-64
2022/05/23 00:43:38;;;;;;;;;;;;;;;23.96;40.94;94991.69;10336867;28;2225;-63
2022/05/23 00:48:38;;;;;;;;;;;;;;;23.97;41.11;94993.22;10339712;28;2185;-62
2022/05/23 00:53:39;;;;;;;;;;;;;;;23.98;40.99;94996.66;10317917;28;2260;-64
2022/05/23 00:58:44;;;;;;;;;;;;;;;23.98;40.84;95005.41;10345774;28;2213;-62
2022/05/23 01:03:45;;;;;;;;;;;;;;;23.98;40.79;95004.59;10350394;28;2224;-63
2022/05/23 01:08:46;;;;;;;;;;;;;;;23.99;40.64;94999.00;10343407;28;2146;-62
2022/05/23 01:13:47;;;;;;;;;;;;;;;23.99;40.71;94993.69;10341742;28;2193;-63
2022/05/23 01:18:48;;;;;;;;;;;;;;;24.00;40.63;94979.38;10355702;28;2283;-62
2022/05/23 01:23:51;;;;;;;;;;;;;;;23.99;40.94;94975.16;10354443;28;2323;-60
2022/05/23 01:29:01;;;;;;;;;;;;;;;23.99;40.99;94972.53;10339762;28;2343;-63
2022/05/23 01:34:03;;;;;;;;;;;;;;;23.99;40.59;94972.53;10344475;28;2235;-64
2022/05/23 01:39:06;;;;;;;;;;;;;;;23.99;40.81;94972.53;10344534;28;2240;-63
2022/05/23 01:44:07;;;;;;;;;;;;;;;23.98;41.07;94957.75;10339139;28;2181;-63
2022/05/23 01:49:07;;;;;;;;;;;;;;;24.00;40.48;94958.22;10358460;28;2161;-61
2022/05/23 01:54:07;;;;;;;;;;;;;;;24.00;40.61;94942.31;10343853;28;2256;-64
2022/05/23 02:04:27;;;;;;;;;;;;;;;24.02;40.78;94926.13;10346172;28;2301;-59
2022/05/23 02:09:28;;;;;;;;;;;;;;;24.01;40.81;94927.97;10340357;28;2248;-63
2022/05/23 02:14:28;;;;;;;;;;;;;;;24.02;41.29;94932.19;10355711;28;2108;-61
2022/05/23 02:19:31;;;;;;;;;;;;;;;24.03;41.22;94936.41;10338570;28;2213;-59
2022/05/23 02:24:32;;;;;;;;;;;;;;;24.03;41.05;94947.00;10353994;28;2247;-64
2022/05/23 02:29:33;;;;;;;;;;;;;;;24.04;41.44;94943.28;10347530;28;2196;-60
2022/05/23 02:34:33;;;;;;;;;;;;;;;24.04;41.08;94948.56;10344345;28;2284;-63
2022/05/23 02:39:34;;;;;;;;;;;;;;;24.06;41.38;94927.06;10353756;28;2255;-63
2022/05/23 02:44:35;;;;;;;;;;;;;;;24.05;41.04;94928.94;10337619;28;2379;-63
2022/05/23 02:49:36;;;;;;;;;;;;;;;24.06;40.95;94919.91;10333534;28;2284;-61
2022/05/23 02:54:37;;;;;;;;;;;;;;;24.05;41.14;94913.06;10342240;28;2369;-64
2022/05/23 02:59:38;;;;;;;;;;;;;;;24.05;41.27;94907.75;10353765;28;2354;-64
2022/05/23 03:04:39;;;;;;;;;;;;;;;24.05;40.95;94897.16;10345963;28;2334;-61
2022/05/23 03:09:39;;;;;;;;;;;;;;;24.05;41.00;94897.16;10341058;28;2351;-62
2022/05/23 03:14:40;;;;;;;;;;;;;;;24.06;40.93;94898.72;10355291;28;2369;-63
2022/05/23 03:19:40;;;;;;;;;;;;;;;24.05;41.18;94897.16;10357968;28;2349;-60
2022/05/23 03:29:59;;;;;;;;;;;;;;;24.06;40.95;94897.94;10345656;28;2370;-64
2022/05/23 03:35:01;;;;;;;;;;;;;;;24.07;41.01;94894.22;10353435;28;2412;-62
2022/05/23 03:40:05;;;;;;;;;;;;;;;24.07;41.18;94878.34;10349079;28;2400;-63
2022/05/23 03:45:06;;;;;;;;;;;;;;;24.07;40.88;94878.34;10336922;28;2260;-63
2022/05/23 03:50:08;;;;;;;;;;;;;;;24.05;41.07;94865.41;10331501;28;2414;-65
2022/05/23 03:55:08;;;;;;;;;;;;;;;24.09;41.14;94866.31;10325815;28;2366;-62
2022/05/23 04:00:09;;;;;;;;;;;;;;;24.08;41.44;94858.69;10327716;28;2454;-62
2022/05/23 04:05:10;;;;;;;;;;;;;;;24.09;41.37;94847.78;10329598;28;2748;-64
2022/05/23 04:10:12;;;;;;;;;;;;;;;24.09;41.26;94834.53;10352276;28;2318;-63
2022/05/23 04:15:13;;;;;;;;;;;;;;;24.09;41.65;94834.53;10352095;28;2330;-63
2022/05/23 04:20:33;;;;;;;;;;;;;;;24.10;41.55;94832.69;10343621;28;2382;-64
2022/05/23 04:25:53;;;;;;;;;;;;;;;24.09;41.28;94839.84;10345041;28;2514;-63
2022/05/23 04:30:53;;;;;;;;;;;;;;;24.09;41.21;94839.84;10322842;28;2400;-63
2022/05/23 04:35:54;;;;;;;;;;;;;;;24.09;41.21;94833.78;10335482;28;2654;-63
2022/05/23 04:40:54;;;;;;;;;;;;;;;24.09;41.21;94839.09;10331115;28;2349;-62
2022/05/23 04:45:55;;;;;;;;;;;;;;;24.08;41.37;94840.94;10333312;28;2391;-62
2022/05/23 04:50:55;;;;;;;;;;;;;;;24.08;41.20;94833.00;10350448;28;2627;-62
2022/05/23 04:55:55;;;;;;;;;;;;;;;24.08;41.23;94833.00;10337905;28;2311;-61
2022/05/23 05:00:56;;;;;;;;;;;;;;;24.09;41.21;94823.19;10331637;28;2204;-65
2022/05/23 05:05:56;;;;;;;;;;;;;;;24.09;41.26;94812.59;10329165;28;2337;-64
2022/05/23 05:10:57;;;;;;;;;;;;;;;24.05;41.28;94815.09;10341398;28;2394;-63
2022/05/23 05:16:02;;;;;;;;;;;;;;;24.07;41.07;94814.81;10354411;28;2334;-64
2022/05/23 05:21:06;;;;;;;;;;;;;;;24.08;41.19;94801.25;10365556;28;2283;-64
2022/05/23 05:26:07;;;;;;;;;;;;;;;24.07;41.57;94799.66;10349990;28;2409;-63
2022/05/23 05:31:13;;;;;;;;;;;;;;;24.07;41.33;94797.03;10373498;28;2355;-64
2022/05/23 05:36:15;;;;;;;;;;;;;;;24.06;40.66;94792.84;10347133;28;2231;-62
2022/05/23 05:41:17;;;;;;;;;;;;;;;23.69;39.78;94806.00;10323638;28;2325;-62
2022/05/23 05:46:18;;;;;;;;;;;;;;;23.42;40.34;94804.50;10338880;28;2366;-62
2022/05/23 05:51:20;;;;;;;;;;;;;;;23.42;40.92;94809.78;10325637;28;2083;-63
2022/05/23 05:56:21;;;;;;;;;;;;;;;23.30;40.50;94802.47;10338485;28;2362;-63
2022/05/23 06:01:21;;;;;;;;;;;;;;;23.18;40.79;94804.19;10360736;28;2346;-63
2022/05/23 06:11:46;;;;;;;;;;;;;;;22.93;41.09;94800.47;10313992;28;2299;-63
2022/05/23 06:16:47;;;;;;;;;;;;;;;22.81;41.60;94815.38;10345405;28;2270;-62
2022/05/23 06:21:47;;;;;;;;;;;;;;;22.79;41.67;94825.50;10339804;28;2358;-57
2022/05/23 06:26:48;;;;;;;;;;;;;;;22.70;41.64;94830.75;10355432;28;2435;-61
2022/05/23 06:31:54;;;;;;;;;;;;;;;22.71;42.00;94832.28;10332769;28;2180;-61
2022/05/23 06:36:55;;;;;;;;;;;;;;;22.68;41.92;94832.94;10345354;28;2181;-59
2022/05/23 06:41:55;;;;;;;;;;;;;;;22.73;41.98;94845.22;10327584;28;2197;-56
2022/05/23 06:46:55;;;;;;;;;;;;;;;22.74;42.30;94847.53;10350645;28;2291;-59
2022/05/23 06:51:56;;;;;;;;;;;;;;;22.94;42.31;94848.81;10352007;28;2166;-58
2022/05/23 06:56:56;;;;;;;;;;;;;;;23.10;42.01;94850.69;10339759;28;2189;-60
2022/05/23 07:01:56;;;;;;;;;;;;;;;23.19;41.72;94869.97;10344385;28;2177;-59
2022/05/23 07:12:19;;;;;;;;;;;;;;;23.21;41.79;94911.97;10332503;28;2311;-58
2022/05/23 07:17:21;;;;;;;;;;;;;;;23.20;41.99;94981.81;10337494;28;2259;-59
2022/05/23 07:22:22;;;;;;;;;;;;;;;23.12;41.68;94985.22;10351527;28;2185;-59
2022/05/23 07:27:23;;;;;;;;;;;;;;;23.21;41.97;94988.63;10336209;28;2383;-59
2022/05/23 07:32:24;;;;;;;;;;;;;;;23.31;41.59;94990.97;10350385;28;2154;-60
2022/05/23 07:37:24;;;;;;;;;;;;;;;23.41;41.28;94988.09;10340190;28;2264;-60
2022/05/23 07:42:25;;;;;;;;;;;;;;;23.47;41.00;94980.78;10331684;28;2177;-56
2022/05/23 07:47:25;;;;;;;;;;;;;;;23.49;41.10;94971.47;10352500;28;2267;-59
2022/05/23 07:52:26;;;;;;;;;;;;;;;23.52;40.76;94970.81;10341604;28;2261;-60
2022/05/23 08:02:46;;;;;;;;;;;;;;;23.55;40.65;94935.81;10338830;28;2339;-59
2022/05/23 08:07:46;;;;;;;;;;;;;;;23.58;40.98;94940.47;10313469;28;2256;-58
2022/05/23 08:12:53;;;;;;;;;;;;;;;23.55;40.82;94916.53;10353046;28;2215;-60
2022/05/23 08:17:54;;;;;;;;;;;;;;;23.56;40.65;94921.50;10337978;28;2165;-60
2022/05/23 08:22:55;;;;;;;;;;;;;;;23.67;40.94;94917.47;10331786;28;2270;-60
2022/05/23 08:27:56;;;;;;;;;;;;;;;23.65;40.84;94860.66;10340674;28;2302;-62
2022/05/23 08:32:56;;;;;;;;;;;;;;;23.66;40.82;94841.03;10346587;28;2291;-61
2022/05/23 08:37:58;;;;;;;;;;;;;;;23.65;41.15;94797.94;10351351;28;2239;-62
2022/05/23 08:42:59;;;;;;;;;;;;;;;23.68;41.02;94785.94;10357619;28;2186;-61
2022/05/23 08:48:02;;;;;;;;;;;;;;;23.66;41.44;94775.66;10368327;28;2324;-62
2022/05/23 08:53:05;;;;;;;;;;;;;;;23.70;41.36;94784.50;10338165;28;2273;-60
2022/05/23 08:58:09;;;;;;;;;;;;;;;23.75;41.24;94792.28;10342314;28;2217;-60
2022/05/23 09:03:09;;;;;;;;;;;;;;;23.78;41.24;94785.59;10349970;28;2162;-60
2022/05/23 09:08:11;;;;;;;;;;;;;;;23.81;40.95;94780.44;10341712;28;2105;-63
2022/05/23 09:13:12;;;;;;;;;;;;;;;23.82;40.83;94771.41;10319042;28;2340;-62
2022/05/23 09:18:14;;;;;;;;;;;;;;;23.72;41.23;94761.16;10355617;28;2381;-61
2022/05/23 09:23:23;;;;;;;;;;;;;;;23.55;41.39;94752.50;10341457;28;2240;-59
2022/05/23 09:28:32;;;;;;;;;;;;;;;23.41;40.77;94739.50;10327166;28;2288;-62
2022/05/23 09:33:32;;;;;;;;;;;;;;;23.30;40.97;94733.72;10338602;28;2266;-61
2022/05/23 09:38:32;;;;;;;;;;;;;;;23.29;40.92;94739.31;10343675;28;2641;-61
2022/05/23 09:49:03;;;;;;;;;;;;;;;23.32;40.67;94721.00;10349281;28;2182;-63
2022/05/23 09:54:03;;;;;;;;;;;;;;;23.36;40.52;94710.56;10342209;28;2217;-62
2022/05/23 09:59:07;;;;;;;;;;;;;;;23.38;40.30;94703.09;10336141;28;2301;-62
2022/05/23 10:04:21;;;;;;;;;;;;;;;23.39;40.17;94700.13;10340824;28;2690;-63
2022/05/23 10:09:42;;;;;;;;;;;;;;;23.44;40.50;94693.88;10360074;28;2118;-62
2022/05/23 10:14:49;;;;;;;;;;;;;;;23.39;39.77;94688.75;10357495;28;2170;-62
2022/05/23 10:19:49;;;;;;;;;;;;;;;23.35;39.85;94677.25;10338620;28;2142;-62
2022/05/23 10:24:53;;;;;;;;;;;;;;;23.40;39.76;94664.66;10345728;28;2236;-61
2022/05/23 10:30:04;;;;;;;;;;;;;;;23.49;39.53;94659.34;10338884;28;2125;-60
2022/05/23 10:35:24;;;;;;;;;;;;;;;23.50;39.13;94652.16;10338433;28;2181;-63
2022/05/23 10:45:47;;;;;;;;;;;;;;;23.55;39.27;94625.53;10345136;28;2236;-59
2022/05/23 10:50:56;;;;;;;;;;;;;;;23.57;39.76;94629.44;10345216;28;2236;-62
2022/05/23 10:56:16;;;;;;;;;;;;;;;23.61;39.80;94626.91;10345536;28;2149;-62
2022/05/23 11:01:26;;;;;;;;;;;;;;;23.61;39.90;94637.50;10339036;28;2340;-60
2022/05/23 11:06:45;;;;;;;;;;;;;;;23.63;39.71;94627.38;10336021;28;2230;-60
2022/05/23 11:11:53;;;;;;;;;;;;;;;23.66;39.93;94624.84;10347081;28;2233;-58
2022/05/23 11:16:57;;;;;;;;;;;;;;;23.67;40.22;94620.34;10334601;28;2428;-60
2022/05/23 11:22:13;;;;;;;;;;;;;;;23.70;40.24;94619.72;10335062;28;2165;-60
2022/05/23 11:38:01;;;;;;;;;;;;;;;23.73;40.05;94582.78;10352431;28;2347;-59
2022/05/23 11:43:02;;;;;;;;;;;;;;;23.75;40.15;94585.91;10332964;28;2317;-61
2022/05/23 11:48:03;;;;;;;;;;;;;;;23.72;40.29;94570.66;10336572;28;2383;-62
2022/05/23 11:53:03;;;;;;;;;;;;;;;23.75;40.04;94561.31;10329140;28;2230;-61
2022/05/23 11:58:24;;;;;;;;;;;;;;;23.77;40.50;94564.41;10346484;28;2169;-61
2022/05/23 12:03:24;;;;;;;;;;;;;;;23.82;40.36;94559.69;10324705;28;2209;-61
2022/05/23 12:08:26;;;;;;;;;;;;;;;23.82;40.07;94533.22;10334799;28;2237;-61
2022/05/23 12:13:29;;;;;;;;;;;;;;;23.83;40.45;94524.19;10330788;28;2283;-61
2022/05/23 12:18:35;;;;;;;;;;;;;;;23.84;40.54;94527.63;10352025;28;2098;-61
2022/05/23 12:23:36;;;;;;;;;;;;;;;23.88;40.37;94526.66;10312911;28;2290;-60
2022/05/23 12:28:43;;;;;;;;;;;;;;;23.87;40.13;94514.50;10331245;28;2262;-60
2022/05/23 12:33:51;;;;;;;;;;;;;;;23.85;40.07;94508.00;10355063;28;2255;-60
2022/05/23 12:39:03;;;;;;;;;;;;;;;23.83;39.90;94496.94;10334984;28;2239;-61
2022/05/23 12:44:13;;;;;;;;;;;;;;;23.85;40.09;94492.91;10328290;28;2332;-60
2022/05/23 12:49:26;;;;;;;;;;;;;;;23.87;39.69;94501.28;10341452;28;2186;-62
2022/05/23 12:54:43;;;;;;;;;;;;;;;23.89;39.95;94507.03;10333869;28;2312;-62
2022/05/23 12:59:45;;;;;;;;;;;;;;;23.91;39.93;94506.69;10347297;28;2559;-61
2022/05/23 13:04:53;;;;;;;;;;;;;;;23.90;40.09;94510.44;10322185;28;2336;-61
2022/05/23 13:09:57;;;;;;;;;;;;;;;23.92;40.03;94498.44;10339304;28;2606;-61
2022/05/23 13:14:58;;;;;;;;;;;;;;;23.94;40.62;94474.31;10339389;28;2432;-60
2022/05/23 13:25:17;;;;;;;;;;;;;;;23.93;40.45;94455.00;10355778;28;2272;-61
2022/05/23 13:30:19;;;;;;;;;;;;;;;23.92;40.06;94456.09;10327231;28;2350;-61
2022/05/23 13:35:21;;;;;;;;;;;;;;;23.93;40.51;94462.16;10340368;28;2369;-61
2022/05/23 13:40:25;;;;;;;;;;;;;;;23.94;40.60;94461.06;10351440;28;2284;-63
2022/05/23 13:45:25;;;;;;;;;;;;;;;23.97;40.42;94481.56;10356969;28;2419;-61
2022/05/23 13:50:32;;;;;;;;;;;;;;;24.00;40.39;94494.94;10348562;28;2204;-61
2022/05/23 13:55:40;;;;;;;;;;;;;;;24.00;40.64;94494.94;10339192;28;2386;-61
2022/05/23 14:00:43;;;;;;;;;;;;;;;23.99;40.66;94506.63;10329731;28;2299;-61
2022/05/23 14:05:44;;;;;;;;;;;;;;;24.00;40.68;94532.00;10318637;28;2539;-61
2022/05/23 14:10:44;;;;;;;;;;;;;;;24.00;41.00;94515.34;10327216;28;2268;-60
2022/05/23 14:15:50;;;;;;;;;;;;;;;23.99;40.83;94511.13;10333575;28;2287;-60
2022/05/23 14:20:51;;;;;;;;;;;;;;;23.99;40.83;94521.72;10350555;28;2318;-60
2022/05/23 14:25:55;;;;;;;;;;;;;;;23.96;40.86;94541.69;10356004;28;2349;-59
2022/05/23 14:30:56;;;;;;;;;;;;;;;23.96;40.64;94562.88;10340428;28;2169;-61
2022/05/23 14:35:59;;;;;;;;;;;;;;;23.95;40.65;94571.91;10338745;28;2258;-61
2022/05/23 14:41:12;;;;;;;;;;;;;;;23.95;40.64;94579.84;10354671;28;2215;-61
2022/05/23 14:46:29;;;;;;;;;;;;;;;23.94;40.74;94565.06;10354354;28;2299;-62
2022/05/23 14:51:31;;;;;;;;;;;;;;;23.94;40.75;94532.53;10336540;28;2348;-58
2022/05/23 14:56:37;;;;;;;;;;;;;;;23.97;40.92;94545.88;10344239;28;2197;-61
2022/05/23 15:01:40;;;;;;;;;;;;;;;23.99;41.19;94567.50;10333044;28;2247;-58
2022/05/23 15:06:40;;;;;;;;;;;;;;;23.98;40.90;94547.44;10336133;28;2252;-58
2022/05/23 15:11:41;;;;;;;;;;;;;;;23.99;41.01;94548.97;10350508;28;2245;-61
2022/05/23 15:16:41;;;;;;;;;;;;;;;24.00;41.04;94539.16;10356564;28;2164;-60
2022/05/23 15:21:41;;;;;;;;;;;;;;;23.99;41.08;94538.38;10357522;28;2145;-59
2022/05/23 15:26:43;;;;;;;;;;;;;;;24.02;41.23;94478.75;10333845;28;2260;-61
2022/05/23 15:31:44;;;;;;;;;;;;;;;24.00;41.24;94375.06;10339225;28;2332;-61
2022/05/23 15:36:45;;;;;;;;;;;;;;;24.01;41.41;94416.28;10336849;28;2604;-61
2022/05/23 15:41:47;;;;;;;;;;;;;;;24.01;41.42;94446.19;10336705;28;2316;-60
2022/05/23 15:46:48;;;;;;;;;;;;;;;24.02;41.32;94458.34;10332721;28;2190;-61
2022/05/23 15:51:48;;;;;;;;;;;;;;;24.02;41.37;94468.94;10336867;28;2209;-59
2022/05/23 15:56:48;;;;;;;;;;;;;;;24.01;41.50;94470.00;10338354;28;2220;-61
2022/05/23 16:01:49;;;;;;;;;;;;;;;24.02;41.60;94454.91;10322181;28;2318;-60
2022/05/23 16:06:49;;;;;;;;;;;;;;;24.03;41.42;94444.03;10331736;28;2269;-60
2022/05/23 16:11:51;;;;;;;;;;;;;;;24.04;41.88;94444.81;10355255;28;2165;-61
2022/05/23 16:16:54;;;;;;;;;;;;;;;24.04;41.99;94440.28;10350729;28;2261;-60
2022/05/23 16:21:54;;;;;;;;;;;;;;;24.05;41.72;94447.13;10341581;28;2197;-59
2022/05/23 16:26:54;;;;;;;;;;;;;;;24.09;41.85;94448.00;10328337;28;2207;-59
2022/05/23 16:31:55;;;;;;;;;;;;;;;24.09;41.90;94476.38;10338083;28;2355;-59
2022/05/23 16:36:55;;;;;;;;;;;;;;;24.09;41.96;94495.66;10348178;28;2325;-58
2022/05/23 16:41:55;;;;;;;;;;;;;;;24.09;41.97;94503.59;10352314;28;2334;-58
2022/05/23 16:46:56;;;;;;;;;;;;;;;24.10;41.95;94517.63;10352431;28;2311;-59
2022/05/23 16:51:56;;;;;;;;;;;;;;;24.09;41.57;94516.84;10342090;28;2360;-61
2022/05/23 16:56:57;;;;;;;;;;;;;;;24.09;41.54;94516.09;10332371;28;2255;-58
2022/05/23 17:01:59;;;;;;;;;;;;;;;24.09;41.29;94521.38;10335799;28;2304;-59
2022/05/23 17:07:00;;;;;;;;;;;;;;;24.09;41.64;94524.03;10347105;28;2221;-58
2022/05/23 17:12:00;;;;;;;;;;;;;;;23.98;43.74;94534.22;10354978;28;2249;-60
2022/05/23 17:17:00;;;;;;;;;;;;;;;23.95;45.24;94540.13;10364086;28;2105;-59
2022/05/23 17:22:04;;;;;;;;;;;;;;;23.83;46.31;94520.78;10364609;28;2161;-60
2022/05/23 17:27:04;;;;;;;;;;;;;;;23.78;46.17;94526.28;10349011;28;2241;-62
2022/05/23 17:32:05;;;;;;;;;;;;;;;23.69;47.08;94550.13;10353495;28;2318;-62
2022/05/23 17:37:05;;;;;;;;;;;;;;;23.62;47.44;94555.16;10344318;28;2247;-60
2022/05/23 17:42:06;;;;;;;;;;;;;;;23.61;47.96;94558.91;10350316;28;2205;-62
2022/05/23 17:47:06;;;;;;;;;;;;;;;23.67;47.55;94605.25;10348436;28;2342;-62
2022/05/23 17:52:06;;;;;;;;;;;;;;;23.64;48.58;94658.78;10349710;28;2169;-61
2022/05/23 17:57:07;;;;;;;;;;;;;;;23.55;49.51;94732.13;10345412;28;2562;-62
2022/05/23 18:02:07;;;;;;;;;;;;;;;23.51;50.21;94770.09;10338037;28;2253;-60
2022/05/23 18:07:08;;;;;;;;;;;;;;;23.53;48.49;94829.53;10337096;28;2343;-62
2022/05/23 18:12:09;;;;;;;;;;;;;;;23.73;45.57;94889.75;10352654;28;2220;-64
2022/05/23 18:22:29;;;;;;;;;;;;;;;23.94;45.06;94871.31;10354635;28;2350;-61
2022/05/23 18:27:29;;;;;;;;;;;;;;;23.99;45.01;94837.50;10359612;28;2363;-57
2022/05/23 18:32:30;;;;;;;;;;;;;;;24.03;44.47;94835.81;10359387;28;2236;-58
2022/05/23 18:37:31;;;;;;;;;;;;;;;24.09;44.82;94786.88;10356958;28;2229;-54
2022/05/23 18:42:31;;;;;;;;;;;;;;;24.16;44.97;94701.66;10356871;28;2208;-61
2022/05/23 18:47:33;;;;;;;;;;;;;;;24.19;44.54;94595.88;10359067;28;2150;-58
2022/05/23 18:52:33;;;;;;;;;;;;;;;24.22;44.59;94591.81;10349892;28;2200;-59
2022/05/23 18:57:34;;;;;;;;;;;;;;;24.26;44.01;94600.66;10358481;28;2344;-60
2022/05/23 19:02:38;;;;;;;;;;;;;;;24.29;44.00;94596.59;10339241;28;2318;-63
2022/05/23 19:07:40;;;;;;;;;;;;;;;24.30;43.98;94600.81;10337842;28;2284;-65
2022/05/23 19:12:41;;;;;;;;;;;;;;;24.25;43.54;94613.13;10347507;28;2192;-64
2022/05/23 19:17:41;;;;;;;;;;;;;;;24.24;43.38;94613.44;10366281;28;2216;-64
2022/05/23 19:22:41;;;;;;;;;;;;;;;24.23;43.31;94628.56;10339545;28;2212;-63
2022/05/23 19:27:42;;;;;;;;;;;;;;;24.22;43.26;94648.19;10355710;28;2303;-62
2022/05/23 19:32:43;;;;;;;;;;;;;;;24.25;42.72;94673.28;10348753;28;2311;-60
2022/05/23 19:37:44;;;;;;;;;;;;;;;24.27;44.97;94694.13;10344352;28;2248;-63
2022/05/23 19:42:45;;;;;;;;;;;;;;;24.28;45.38;94698.34;10342460;28;2260;-62
2022/05/23 19:47:46;;;;;;;;;;;;;;;24.24;44.93;94708.78;10352995;28;2281;-63
2022/05/23 19:52:49;;;;;;;;;;;;;;;24.20;45.10;94711.31;10334613;28;2276;-64
2022/05/23 19:57:50;;;;;;;;;;;;;;;24.15;45.34;94676.28;10351745;28;2255;-62
2022/05/23 20:08:10;;;;;;;;;;;;;;;24.14;44.71;94662.28;10339047;28;2280;-64
2022/05/23 20:13:10;;;;;;;;;;;;;;;24.15;44.63;94665.72;10365602;28;2311;-62
2022/05/23 20:18:12;;;;;;;;;;;;;;;24.14;44.31;94677.38;10371289;28;2248;-63
2022/05/23 20:23:13;;;;;;;;;;;;;;;24.13;43.95;94687.19;10364518;28;2292;-65
2022/05/23 20:28:15;;;;;;;;;;;;;;;24.12;43.90;94701.53;10346198;28;2254;-62
2022/05/23 20:33:15;;;;;;;;;;;;;;;24.12;44.21;94716.66;10327525;28;2662;-63
2022/05/23 20:38:16;;;;;;;;;;;;;;;24.10;43.67;94716.19;10348210;28;2193;-64
2022/05/23 20:43:17;;;;;;;;;;;;;;;24.09;43.88;94720.69;10332872;28;2232;-63
2022/05/23 20:48:17;;;;;;;;;;;;;;;24.09;43.95;94712.00;10320380;28;2146;-63
2022/05/23 20:53:18;;;;;;;;;;;;;;;24.09;43.96;94722.59;10333848;28;2292;-64
2022/05/23 20:58:18;;;;;;;;;;;;;;;24.08;43.84;94726.31;10342430;28;2245;-63
2022/05/23 21:03:19;;;;;;;;;;;;;;;24.08;43.66;94739.56;10336758;28;2197;-62
2022/05/23 21:08:20;;;;;;;;;;;;;;;24.07;43.50;94730.84;10347220;28;2137;-65
2022/05/23 21:13:20;;;;;;;;;;;;;;;24.08;43.68;94734.25;10351053;28;2256;-65
2022/05/23 21:18:20;;;;;;;;;;;;;;;24.07;43.75;94746.72;10359849;28;2212;-66
2022/05/23 21:23:21;;;;;;;;;;;;;;;24.08;43.37;94763.38;10356930;28;2264;-64
2022/05/23 21:28:21;;;;;;;;;;;;;;;24.08;43.54;94752.78;10356159;28;2228;-62
2022/05/23 21:33:22;;;;;;;;;;;;;;;24.07;43.36;94744.06;10358851;28;2162;-64
2022/05/23 21:38:23;;;;;;;;;;;;;;;24.07;43.31;94745.97;10357286;28;2320;-65
2022/05/23 21:48:43;;;;;;;;;;;;;;;24.06;43.33;94739.09;10352096;28;2236;-64
2022/05/23 21:53:43;;;;;;;;;;;;;;;24.06;43.29;94724.00;10354310;28;2149;-64
2022/05/23 21:58:44;;;;;;;;;;;;;;;24.06;43.27;94755.78;10345737;28;2241;-60
2022/05/23 22:03:44;;;;;;;;;;;;;;;24.06;43.17;94779.59;10337539;28;2275;-64
2022/05/23 22:08:46;;;;;;;;;;;;;;;24.05;43.43;94783.31;10357542;28;2288;-62
2022/05/23 22:13:46;;;;;;;;;;;;;;;24.05;42.84;94770.09;10323570;28;2172;-62
2022/05/23 22:18:47;;;;;;;;;;;;;;;24.06;42.82;94784.09;10349501;28;2379;-64
2022/05/23 22:23:48;;;;;;;;;;;;;;;24.04;42.98;94781.78;10350323;28;2233;-65
2022/05/23 22:28:49;;;;;;;;;;;;;;;24.03;42.60;94788.16;10337963;28;2450;-64
2022/05/23 22:33:50;;;;;;;;;;;;;;;24.04;42.92;94789.72;10350403;28;2331;-62
2022/05/23 22:38:51;;;;;;;;;;;;;;;24.05;42.63;94785.22;10355226;28;2390;-62
2022/05/23 22:43:51;;;;;;;;;;;;;;;24.04;42.87;94771.19;10345133;28;2232;-63
2022/05/23 22:48:52;;;;;;;;;;;;;;;24.04;42.54;94765.91;10353164;28;2213;-64
2022/05/23 22:53:52;;;;;;;;;;;;;;;24.04;42.63;94767.78;10354193;28;2323;-64
2022/05/23 22:58:53;;;;;;;;;;;;;;;24.04;42.54;94767.78;10352303;28;2275;-65
2022/05/23 23:09:12;;;;;;;;;;;;;;;24.03;42.41;94769.63;10353819;28;2188;-65
2022/05/23 23:14:13;;;;;;;;;;;;;;;24.03;42.34;94782.88;10355567;28;2165;-64
2022/05/23 23:19:14;;;;;;;;;;;;;;;24.03;42.50;94771.47;10337903;28;2218;-63
2022/05/23 23:24:15;;;;;;;;;;;;;;;24.03;42.74;94779.41;10350114;28;2609;-61
2022/05/23 23:29:15;;;;;;;;;;;;;;;24.03;42.61;94771.47;10331242;28;2587;-64
2022/05/23 23:39:35;;;;;;;;;;;;;;;24.02;42.33;94762.78;10342532;28;2126;-64
2022/05/23 23:44:37;;;;;;;;;;;;;;;24.02;42.68;94760.13;10336196;28;2285;-63
2022/05/23 23:49:37;;;;;;;;;;;;;;;24.02;42.23;94748.75;10335069;28;2344;-65
2022/05/23 23:54:37;;;;;;;;;;;;;;;24.03;42.25;94742.34;10339951;28;2192;-64
2022/05/23 23:59:38;;;;;;;;;;;;;;;24.01;42.35;94750.63;10339023;28;2641;-65
